createdAt,value
2019-04-21T00:01:08.728Z,54.20
2019-04-21T00:03:40.711Z,55.40
2019-04-21T00:06:22.375Z,56.70
2019-04-21T00:08:56.088Z,57.00
2019-04-21T00:11:29.891Z,57.40
2019-04-21T00:13:49.697Z,58.00
2019-04-21T00:16:09.237Z,58.20
2019-04-21T00:19:02.546Z,58.40
2019-04-21T00:21:34.395Z,58.90
2019-04-21T00:24:24.274Z,59.20
2019-04-21T00:27:17.431Z,59.50
2019-04-21T00:29:50.033Z,59.80
2019-04-21T00:32:14.839Z,60.40
2019-04-21T00:34:31.913Z,60.70
2019-04-21T00:37:12.242Z,61.40
2019-04-21T00:40:02.172Z,62.30
2019-04-21T00:42:19.556Z,62.60
2019-04-21T00:44:44.235Z,62.80
2019-04-21T00:47:25.421Z,63.80
2019-04-21T00:49:49.349Z,64.40
2019-04-21T00:55:20.222Z,66.20
2019-04-21T00:57:48.175Z,66.80
2019-04-21T01:00:11.857Z,67.10
2019-04-21T01:05:18.332Z,67.60
2019-04-21T01:07:42.238Z,67.20
2019-04-21T01:10:05.188Z,66.90
2019-04-21T01:12:42.620Z,67.00
2019-04-21T01:15:18.428Z,66.60
2019-04-21T01:17:40.520Z,66.70
2019-04-21T01:20:08.165Z,65.60
2019-04-21T01:22:21.096Z,65.80
2019-04-21T01:25:00.110Z,66.00
2019-04-21T01:27:39.824Z,66.10
2019-04-21T01:30:11.716Z,66.00
2019-04-21T01:32:42.421Z,65.80
2019-04-21T01:35:10.180Z,66.00
2019-04-21T01:37:44.238Z,66.50
2019-04-21T01:40:16.972Z,67.30
2019-04-21T01:42:38.197Z,67.50
2019-04-21T01:45:11.381Z,67.60
2019-04-21T01:47:36.111Z,68.20
2019-04-21T01:50:01.550Z,68.50
2019-04-21T01:52:45.453Z,68.80
2019-04-21T01:55:12.801Z,69.10
2019-04-21T01:57:42.511Z,69.60
2019-04-21T02:00:12.989Z,69.90
2019-04-21T02:02:54.599Z,70.40
2019-04-21T02:05:28.381Z,70.70
2019-04-21T02:07:50.578Z,71.00
2019-04-21T02:10:26.994Z,71.50
2019-04-21T02:12:51.089Z,71.90
2019-04-21T02:15:23.727Z,72.10
2019-04-21T02:17:54.150Z,72.00
2019-04-21T02:20:15.204Z,72.00
2019-04-21T02:23:06.040Z,71.90
2019-04-21T02:25:26.249Z,71.70
2019-04-21T02:27:59.243Z,71.70
2019-04-21T02:30:36.184Z,71.90
2019-04-21T02:43:05.403Z,70.00
2019-04-21T02:45:30.252Z,69.60
2019-04-21T02:48:06.323Z,69.60
2019-04-21T02:50:33.493Z,69.90
2019-04-21T02:53:03.577Z,70.10
2019-04-21T02:55:28.936Z,70.90
2019-04-21T02:58:06.130Z,71.10
2019-04-21T03:00:59.590Z,71.50
2019-04-21T03:06:17.983Z,72.40
2019-04-21T03:08:50.378Z,72.50
2019-04-21T03:16:23.442Z,72.80
2019-04-21T03:26:22.498Z,73.70
2019-04-21T03:28:49.521Z,73.50
2019-04-21T03:31:49.512Z,74.10
2019-04-21T03:34:18.493Z,74.30
2019-04-21T03:38:45.350Z,74.70
2019-04-21T03:41:26.849Z,75.10
2019-04-21T03:43:44.309Z,75.10
2019-04-21T03:46:15.935Z,76.00
2019-04-21T03:48:52.032Z,76.70
2019-04-21T03:53:45.973Z,76.60
2019-04-21T03:56:27.011Z,76.60
2019-04-21T04:01:16.483Z,76.20
2019-04-21T04:04:15.180Z,76.60
2019-04-21T04:11:45.635Z,77.80
2019-04-21T04:16:47.724Z,78.20
2019-04-21T04:19:09.597Z,78.10
2019-04-21T04:21:52.556Z,77.50
2019-04-21T04:24:13.628Z,76.90
2019-04-21T04:26:39.513Z,76.00
2019-04-21T04:29:12.241Z,76.10
2019-04-21T04:39:26.374Z,70.20
2019-04-21T04:42:12.369Z,68.60
2019-04-21T04:44:50.051Z,68.00
2019-04-21T04:47:10.297Z,67.80
2019-04-21T04:52:19.276Z,66.90
2019-04-21T04:57:14.199Z,67.20
2019-04-21T04:59:42.971Z,67.10
2019-04-21T05:02:15.032Z,66.90
2019-04-21T05:09:44.669Z,66.20
2019-04-21T05:12:19.726Z,65.40
2019-04-21T05:14:39.716Z,61.80
2019-04-21T05:17:02.265Z,56.80
2019-04-21T05:19:30.570Z,52.80
2019-04-21T05:24:23.093Z,48.10
2019-04-21T05:26:53.297Z,45.40
2019-04-21T05:29:19.389Z,44.70
2019-04-21T05:32:10.607Z,41.80
2019-04-21T05:34:38.217Z,40.70
2019-04-21T05:37:15.541Z,39.80
2019-04-21T05:39:45.142Z,39.90
2019-04-21T05:42:08.962Z,40.10
2019-04-21T05:45:04.279Z,39.70
2019-04-21T05:47:24.962Z,39.30
2019-04-21T05:49:49.795Z,39.30
2019-04-21T05:52:21.533Z,38.40
2019-04-21T05:54:55.706Z,37.40
2019-04-21T05:57:23.876Z,37.00
2019-04-21T05:59:53.355Z,36.10
2019-04-21T06:02:28.929Z,35.40
2019-04-21T06:09:57.203Z,35.70
2019-04-21T06:12:31.651Z,34.60
2019-04-21T06:14:55.956Z,33.10
2019-04-21T06:17:31.465Z,32.10
2019-04-21T06:19:59.086Z,31.80
2019-04-21T06:22:36.105Z,31.50
2019-04-21T06:25:21.573Z,34.20
2019-04-21T06:27:38.980Z,30.90
2019-04-21T06:29:54.705Z,31.10
2019-04-21T06:32:46.706Z,30.70
2019-04-21T06:40:09.301Z,29.60
2019-04-21T06:42:26.675Z,28.80
2019-04-21T06:45:00.135Z,27.50
2019-04-21T06:47:30.214Z,28.30
2019-04-21T06:49:58.731Z,28.50
2019-04-21T06:52:47.931Z,27.80
2019-04-21T06:55:05.382Z,28.90
2019-04-21T06:57:30.578Z,29.70
2019-04-21T06:59:55.293Z,29.40
2019-04-21T07:05:03.668Z,28.30
2019-04-21T07:07:21.736Z,29.00
2019-04-21T07:12:21.974Z,27.30
2019-04-21T07:15:00.189Z,28.20
2019-04-21T07:17:28.345Z,28.20
2019-04-21T07:20:03.818Z,26.70
2019-04-21T07:22:31.102Z,27.30
2019-04-21T07:24:58.680Z,26.50
2019-04-21T07:27:30.324Z,26.10
2019-04-21T07:29:59.570Z,26.10
2019-04-21T07:32:26.771Z,26.80
2019-04-21T07:35:00.321Z,27.10
2019-04-21T07:37:23.956Z,26.90
2019-04-21T07:39:56.041Z,26.00
2019-04-21T07:42:18.547Z,26.30
2019-04-21T07:44:49.541Z,24.90
2019-04-21T07:47:28.437Z,24.80
2019-04-21T07:52:53.345Z,26.00
2019-04-21T07:57:31.627Z,25.40
2019-04-21T08:00:16.115Z,24.70
2019-04-21T08:02:37.322Z,25.10
2019-04-21T08:07:50.702Z,24.60
2019-04-21T08:10:07.779Z,26.30
2019-04-21T08:12:30.165Z,26.20
2019-04-21T08:15:14.308Z,26.10
2019-04-21T08:17:35.861Z,25.50
2019-04-21T08:19:59.157Z,26.60
2019-04-21T08:22:43.217Z,25.30
2019-04-21T08:25:04.435Z,25.40
2019-04-21T08:27:44.725Z,25.20
2019-04-21T08:30:09.613Z,25.90
2019-04-21T08:32:44.740Z,26.90
2019-04-21T08:35:23.970Z,27.40
2019-04-21T08:37:32.863Z,28.30
2019-04-21T08:40:12.369Z,30.80
2019-04-21T08:42:30.507Z,32.60
2019-04-21T08:45:09.186Z,31.20
2019-04-21T08:47:33.696Z,33.20
2019-04-21T08:50:00.947Z,33.90
2019-04-21T08:55:11.179Z,33.70
2019-04-21T09:00:32.504Z,32.80
2019-04-21T09:03:07.972Z,33.50
2019-04-21T09:05:29.705Z,34.00
2019-04-21T09:08:03.813Z,33.70
2019-04-21T09:10:35.425Z,32.20
2019-04-21T09:12:58.766Z,33.20
2019-04-21T09:15:30.930Z,32.30
2019-04-21T09:18:01.308Z,31.80
2019-04-21T09:20:38.750Z,31.00
2019-04-21T09:23:00.471Z,29.90
2019-04-21T09:28:01.317Z,30.60
2019-04-21T09:30:15.278Z,30.20
2019-04-21T09:32:44.590Z,29.90
2019-04-21T09:35:16.643Z,30.40
2019-04-21T09:37:53.460Z,30.10
2019-04-21T09:40:16.858Z,29.10
2019-04-21T09:42:54.156Z,30.10
2019-04-21T09:45:15.770Z,29.30
2019-04-21T09:47:51.020Z,30.60
2019-04-21T09:50:15.148Z,27.20
2019-04-21T09:52:52.289Z,28.90
2019-04-21T09:55:19.002Z,28.60
2019-04-21T09:57:51.548Z,28.30
2019-04-21T10:00:20.648Z,27.90
2019-04-21T10:02:54.738Z,27.60
2019-04-21T10:05:14.532Z,26.90
2019-04-21T10:07:44.244Z,27.30
2019-04-21T10:10:12.929Z,27.50
2019-04-21T10:12:41.440Z,27.40
2019-04-21T10:15:10.660Z,25.70
2019-04-21T10:17:41.850Z,26.20
2019-04-21T10:20:11.652Z,26.80
2019-04-21T10:22:41.372Z,26.70
2019-04-21T10:25:10.706Z,27.20
2019-04-21T10:27:41.109Z,26.70
2019-04-21T10:30:09.962Z,27.70
2019-04-21T10:32:38.709Z,26.00
2019-04-21T10:35:07.471Z,26.90
2019-04-21T10:37:47.369Z,26.40
2019-04-21T10:40:07.662Z,27.30
2019-04-21T10:42:37.258Z,26.30
2019-04-21T10:45:07.314Z,25.20
2019-04-21T10:47:36.845Z,26.60
2019-04-21T10:50:08.778Z,25.30
2019-04-21T10:52:55.574Z,24.60
2019-04-21T10:55:40.217Z,25.70
2019-04-21T11:00:51.541Z,24.70
2019-04-21T11:03:38.353Z,25.00
2019-04-21T11:06:08.629Z,26.20
2019-04-21T11:08:41.655Z,25.50
2019-04-21T11:11:07.993Z,26.20
2019-04-21T11:13:36.929Z,26.50
2019-04-21T11:16:05.569Z,25.90
2019-04-21T11:18:34.029Z,24.90
2019-04-21T11:21:02.994Z,24.70
2019-04-21T11:23:31.519Z,25.40
2019-04-21T11:26:00.127Z,26.90
2019-04-21T11:28:29.227Z,25.00
2019-04-21T11:30:57.851Z,24.40
2019-04-21T11:33:27.116Z,24.30
2019-04-21T11:35:55.528Z,25.00
2019-04-21T11:39:01.082Z,25.50
2019-04-21T11:41:11.832Z,25.60
2019-04-21T11:43:41.347Z,23.60
2019-04-21T11:46:10.824Z,25.50
2019-04-21T11:48:39.997Z,24.60
2019-04-21T11:51:08.999Z,25.30
2019-04-21T11:53:39.028Z,25.90
2019-04-21T11:56:07.448Z,24.30
2019-04-21T11:58:36.064Z,25.40
2019-04-21T12:01:05.592Z,24.60
2019-04-21T12:03:35.627Z,25.10
2019-04-21T12:06:04.101Z,25.30
2019-04-21T12:08:40.177Z,25.00
2019-04-21T12:11:03.234Z,24.30
2019-04-21T12:13:32.253Z,25.80
2019-04-21T12:16:01.058Z,25.50
2019-04-21T12:18:31.685Z,25.10
2019-04-21T12:21:00.007Z,25.80
2019-04-21T12:23:30.217Z,29.20
2019-04-21T12:25:59.089Z,26.00
2019-04-21T12:28:28.059Z,24.80
2019-04-21T12:30:57.771Z,24.50
2019-04-21T12:33:38.043Z,27.60
2019-04-21T12:36:06.688Z,27.00
2019-04-21T12:38:42.725Z,26.40
2019-04-21T12:41:04.921Z,25.30
2019-04-21T12:43:33.175Z,25.80
2019-04-21T12:46:02.231Z,26.80
2019-04-21T12:48:31.770Z,26.10
2019-04-21T12:51:01.740Z,27.30
2019-04-21T12:53:31.818Z,24.80
2019-04-21T12:56:02.002Z,26.20
2019-04-21T12:58:31.129Z,25.20
2019-04-21T13:01:00.808Z,26.70
2019-04-21T13:03:30.414Z,26.30
2019-04-21T13:05:58.920Z,25.40
2019-04-21T13:08:27.307Z,25.40
2019-04-21T13:10:56.118Z,25.50
2019-04-21T13:13:26.003Z,27.20
2019-04-21T13:15:55.767Z,26.00
2019-04-21T13:18:24.176Z,26.40
2019-04-21T13:20:52.436Z,25.20
2019-04-21T13:23:20.937Z,27.20
2019-04-21T13:25:49.885Z,26.00
2019-04-21T13:28:18.757Z,26.00
2019-04-21T13:30:48.519Z,24.70
2019-04-21T13:33:17.212Z,26.30
2019-04-21T13:35:46.789Z,24.60
2019-04-21T13:38:24.507Z,25.60
2019-04-21T13:41:02.448Z,25.20
2019-04-21T13:43:17.075Z,24.90
2019-04-21T13:45:45.844Z,24.90
2019-04-21T13:48:14.801Z,25.70
2019-04-21T13:50:43.633Z,25.40
2019-04-21T13:53:12.407Z,24.10
2019-04-21T13:55:42.472Z,25.20
2019-04-21T13:58:10.868Z,24.90
2019-04-21T14:00:39.950Z,26.80
2019-04-21T14:03:08.360Z,24.50
2019-04-21T14:05:36.616Z,24.70
2019-04-21T14:08:05.058Z,25.60
2019-04-21T14:10:33.623Z,23.70
2019-04-21T14:13:02.551Z,23.90
2019-04-21T14:15:32.317Z,22.90
2019-04-21T14:18:00.945Z,24.10
2019-04-21T14:20:29.215Z,24.80
2019-04-21T14:23:10.303Z,23.80
2019-04-21T14:25:27.959Z,26.40
2019-04-21T14:27:57.727Z,25.90
2019-04-21T14:30:26.293Z,24.50
2019-04-21T14:32:56.238Z,25.50
2019-04-21T14:35:25.161Z,24.10
2019-04-21T14:37:53.744Z,25.30
2019-04-21T14:40:25.600Z,23.50
2019-04-21T14:42:52.160Z,22.90
2019-04-21T14:45:38.766Z,23.50
2019-04-21T14:48:09.212Z,24.20
2019-04-21T14:50:52.381Z,22.90
2019-04-21T14:53:25.735Z,22.30
2019-04-21T14:55:55.307Z,21.70
2019-04-21T14:58:23.812Z,23.90
2019-04-21T15:00:58.148Z,22.80
2019-04-21T15:03:27.720Z,24.50
2019-04-21T15:05:57.650Z,23.30
2019-04-21T15:08:27.072Z,24.70
2019-04-21T15:10:56.789Z,25.20
2019-04-21T15:13:25.961Z,26.00
2019-04-21T15:15:54.423Z,25.20
2019-04-21T15:18:22.951Z,27.90
2019-04-21T15:20:53.131Z,27.90
2019-04-21T15:23:24.424Z,23.60
2019-04-21T15:25:52.359Z,24.00
2019-04-21T15:28:21.933Z,24.80
2019-04-21T15:30:50.530Z,26.70
2019-04-21T15:33:18.769Z,26.20
2019-04-21T15:35:47.091Z,26.10
2019-04-21T15:38:15.968Z,26.70
2019-04-21T15:40:50.521Z,24.60
2019-04-21T15:43:14.762Z,26.60
2019-04-21T15:45:44.282Z,27.70
2019-04-21T15:48:14.015Z,28.40
2019-04-21T15:50:44.045Z,25.40
2019-04-21T15:53:14.267Z,26.70
2019-04-21T15:55:53.360Z,26.70
2019-04-21T15:58:36.786Z,26.50
2019-04-21T16:01:06.961Z,24.70
2019-04-21T16:03:36.450Z,25.90
2019-04-21T16:06:05.646Z,25.80
2019-04-21T16:08:35.259Z,26.30
2019-04-21T16:11:07.362Z,25.90
2019-04-21T16:13:34.144Z,25.50
2019-04-21T16:16:02.538Z,26.20
2019-04-21T16:18:32.007Z,25.60
2019-04-21T16:21:02.094Z,25.40
2019-04-21T16:23:30.767Z,25.60
2019-04-21T16:26:00.184Z,26.20
2019-04-21T16:28:29.063Z,25.50
2019-04-21T16:30:58.407Z,26.50
2019-04-21T16:33:27.180Z,25.90
2019-04-21T16:35:56.040Z,26.40
2019-04-21T16:38:25.764Z,26.40
2019-04-21T16:40:59.747Z,26.40
2019-04-21T16:43:24.982Z,26.70
2019-04-21T16:45:54.638Z,26.70
2019-04-21T16:48:23.395Z,27.30
2019-04-21T16:50:51.978Z,25.80
2019-04-21T16:53:28.248Z,26.50
2019-04-21T16:56:04.869Z,26.90
2019-04-21T16:58:50.509Z,27.80
2019-04-21T17:01:22.002Z,27.00
2019-04-21T17:03:50.603Z,27.50
2019-04-21T17:06:19.377Z,28.90
2019-04-21T17:08:47.898Z,27.40
2019-04-21T17:11:22.768Z,28.70
2019-04-21T17:13:47.290Z,27.60
2019-04-21T17:16:43.443Z,28.30
2019-04-21T17:18:58.801Z,29.50
2019-04-21T17:21:16.768Z,30.00
2019-04-21T17:23:46.435Z,29.90
2019-04-21T17:26:15.210Z,28.70
2019-04-21T17:28:45.010Z,29.50
2019-04-21T17:31:13.711Z,29.10
2019-04-21T17:33:43.455Z,28.80
2019-04-21T17:36:12.105Z,29.90
2019-04-21T17:38:41.778Z,29.00
2019-04-21T17:41:23.243Z,29.40
2019-04-21T17:43:41.622Z,30.10
2019-04-21T17:46:13.605Z,30.20
2019-04-21T17:48:40.683Z,30.20
2019-04-21T17:51:13.696Z,30.60
2019-04-21T17:53:49.684Z,30.70
2019-04-21T17:56:41.375Z,30.70
2019-04-21T17:59:02.852Z,31.50
2019-04-21T18:01:40.805Z,31.40
2019-04-21T18:04:10.845Z,31.70
2019-04-21T18:06:35.219Z,32.10
2019-04-21T18:09:05.708Z,32.10
2019-04-21T18:11:37.092Z,32.10
2019-04-21T18:13:47.573Z,33.10
2019-04-21T18:16:26.757Z,33.20
2019-04-21T18:18:46.994Z,33.30
2019-04-21T18:24:21.843Z,33.50
2019-04-21T18:26:52.135Z,33.80
2019-04-21T18:29:16.173Z,33.80
2019-04-21T18:31:48.662Z,34.00
2019-04-21T18:34:18.175Z,34.40
2019-04-21T18:36:52.530Z,34.80
2019-04-21T18:39:41.273Z,34.90
2019-04-21T18:42:17.530Z,35.40
2019-04-21T18:45:05.190Z,35.90
2019-04-21T18:47:19.931Z,36.20
2019-04-21T18:49:41.809Z,36.40
2019-04-21T18:52:20.795Z,36.40
2019-04-21T18:54:54.772Z,36.30
2019-04-21T18:57:20.502Z,36.40
2019-04-21T18:59:43.167Z,36.30
2019-04-21T19:02:12.459Z,36.60
2019-04-21T19:04:40.893Z,36.80
2019-04-21T19:07:19.884Z,37.10
2019-04-21T19:10:19.087Z,37.50
2019-04-21T19:12:47.985Z,37.90
2019-04-21T19:14:54.837Z,37.90
2019-04-21T19:20:07.471Z,38.40
2019-04-21T19:22:31.326Z,38.20
2019-04-21T19:25:02.334Z,38.30
2019-04-21T19:27:26.502Z,38.50
2019-04-21T19:30:05.138Z,38.40
2019-04-21T19:32:28.794Z,38.70
2019-04-21T19:34:43.856Z,38.80
2019-04-21T19:37:15.465Z,38.90
2019-04-21T19:39:53.923Z,39.00
2019-04-21T19:42:22.650Z,38.80
2019-04-21T19:44:56.451Z,38.70
2019-04-21T19:47:34.661Z,38.80
2019-04-21T19:50:01.486Z,38.80
2019-04-21T19:52:25.562Z,39.20
2019-04-21T19:54:44.652Z,39.20
2019-04-21T19:57:11.177Z,39.50
2019-04-21T19:59:47.250Z,40.00
2019-04-21T20:02:09.802Z,40.30
2019-04-21T20:04:43.901Z,39.70
2019-04-21T20:07:23.387Z,39.90
2019-04-21T20:09:56.777Z,40.10
2019-04-21T20:12:34.287Z,40.30
2019-04-21T20:14:59.582Z,40.40
2019-04-21T20:17:19.039Z,40.60
2019-04-21T20:19:38.397Z,40.60
2019-04-21T20:22:07.148Z,40.40
2019-04-21T20:24:37.603Z,40.00
2019-04-21T20:27:13.359Z,40.20
2019-04-21T20:29:56.178Z,40.20
2019-04-21T20:32:39.755Z,39.90
2019-04-21T20:34:56.253Z,40.00
2019-04-21T20:37:21.345Z,40.40
2019-04-21T20:39:46.142Z,40.80
2019-04-21T20:42:21.005Z,40.30
2019-04-21T20:44:48.372Z,40.20
2019-04-21T20:47:17.104Z,40.30
2019-04-21T20:49:43.882Z,40.30
2019-04-21T20:52:24.290Z,40.50
2019-04-21T20:54:51.391Z,39.50
2019-04-21T20:57:24.267Z,39.20
2019-04-21T20:59:43.834Z,39.30
2019-04-21T21:02:20.259Z,39.80
2019-04-21T21:04:45.517Z,40.20
2019-04-21T21:07:36.528Z,39.80
2019-04-21T21:09:57.732Z,40.20
2019-04-21T21:12:27.667Z,39.80
2019-04-21T21:14:50.267Z,39.50
2019-04-21T21:17:36.059Z,39.30
2019-04-21T21:19:55.138Z,38.90
2019-04-21T21:22:14.879Z,39.40
2019-04-21T21:24:53.465Z,40.00
2019-04-21T21:27:24.130Z,39.90
2019-04-21T21:29:50.299Z,40.20
2019-04-21T21:32:20.780Z,40.50
2019-04-21T21:34:49.725Z,40.40
2019-04-21T21:40:01.095Z,40.60
2019-04-21T21:42:07.665Z,40.20
2019-04-21T21:44:39.369Z,40.50
2019-04-21T21:47:19.133Z,40.50
2019-04-21T21:49:48.405Z,40.40
2019-04-21T21:52:13.239Z,39.90
2019-04-21T21:54:35.976Z,40.40
2019-04-21T21:57:04.832Z,40.50
2019-04-21T21:59:36.922Z,40.80
2019-04-21T22:02:03.935Z,40.50
2019-04-21T22:04:35.579Z,41.00
2019-04-21T22:07:09.229Z,41.70
2019-04-21T22:09:34.512Z,42.00
2019-04-21T22:12:06.622Z,42.30
2019-04-21T22:14:41.047Z,42.20
2019-04-21T22:17:16.157Z,42.90
2019-04-21T22:19:58.232Z,43.20
2019-04-21T22:22:21.544Z,43.30
2019-04-21T22:24:46.861Z,44.20
2019-04-21T22:27:03.196Z,44.20
2019-04-21T22:29:38.185Z,44.00
2019-04-21T22:32:09.385Z,45.30
2019-04-21T22:34:38.173Z,46.10
2019-04-21T22:37:18.057Z,46.50
2019-04-21T22:39:49.686Z,46.60
2019-04-21T22:42:11.463Z,46.90
2019-04-21T22:44:50.776Z,46.90
2019-04-21T22:47:25.065Z,47.30
2019-04-21T22:49:48.996Z,47.30
2019-04-21T22:52:21.060Z,47.40
2019-04-21T22:54:48.857Z,47.60
2019-04-21T22:57:21.427Z,47.70
2019-04-21T22:59:55.215Z,48.20
2019-04-21T23:02:22.634Z,48.80
2019-04-21T23:04:51.497Z,49.10
2019-04-21T23:07:20.359Z,49.40
2019-04-21T23:09:47.508Z,49.20
2019-04-21T23:12:24.020Z,49.80
2019-04-21T23:14:55.191Z,50.30
2019-04-21T23:17:32.313Z,50.50
2019-04-21T23:20:04.600Z,50.70
2019-04-21T23:22:32.638Z,50.60
2019-04-21T23:25:09.458Z,50.50
2019-04-21T23:27:34.196Z,50.50
2019-04-21T23:30:17.816Z,50.60
2019-04-21T23:32:27.610Z,50.60
2019-04-21T23:34:47.285Z,50.70
2019-04-21T23:37:20.239Z,50.60
2019-04-21T23:39:45.698Z,50.40
2019-04-21T23:42:20.739Z,50.00
2019-04-21T23:44:49.430Z,49.90
2019-04-21T23:47:29.300Z,49.60
2019-04-21T23:49:55.772Z,49.60
2019-04-21T23:52:16.015Z,49.40
2019-04-21T23:54:45.180Z,49.20
2019-04-21T23:57:20.873Z,49.40
2019-04-21T23:59:47.122Z,49.50
